createdAt,value
2018-12-26T00:02:26.590Z,97.40
2018-12-26T00:05:07.323Z,97.40
2018-12-26T00:07:47.932Z,97.30
2018-12-26T00:10:29.155Z,97.20
2018-12-26T00:13:10.884Z,97.30
2018-12-26T00:15:51.970Z,97.40
2018-12-26T00:18:33.312Z,97.40
2018-12-26T00:21:14.599Z,97.40
2018-12-26T00:23:55.368Z,97.50
2018-12-26T00:26:36.912Z,97.50
2018-12-26T00:29:19.519Z,97.50
2018-12-26T00:32:01.063Z,97.60
2018-12-26T00:34:42.634Z,97.40
2018-12-26T00:40:09.719Z,97.60
2018-12-26T00:42:52.600Z,97.50
2018-12-26T00:45:35.874Z,97.40
2018-12-26T00:48:17.133Z,97.40
2018-12-26T00:50:58.350Z,97.40
2018-12-26T00:53:39.396Z,97.40
2018-12-26T00:56:20.935Z,97.50
2018-12-26T00:59:01.619Z,97.50
2018-12-26T01:01:42.359Z,97.50
2018-12-26T01:04:23.311Z,97.60
2018-12-26T01:07:06.482Z,97.60
2018-12-26T01:09:47.368Z,97.70
2018-12-26T01:12:28.694Z,97.70
2018-12-26T01:15:10.139Z,97.60
2018-12-26T01:17:51.801Z,97.70
2018-12-26T01:20:33.569Z,97.60
2018-12-26T01:23:04.025Z,97.60
2018-12-26T01:25:52.566Z,97.60
2018-12-26T01:28:32.295Z,97.60
2018-12-26T01:33:44.423Z,97.80
2018-12-26T01:36:32.983Z,97.70
2018-12-26T01:39:13.741Z,97.80
2018-12-26T01:41:55.183Z,97.80
2018-12-26T01:47:15.090Z,97.80
2018-12-26T01:49:56.822Z,97.80
2018-12-26T01:52:37.689Z,97.80
2018-12-26T01:55:19.330Z,97.90
2018-12-26T01:58:00.500Z,98.20
2018-12-26T02:00:41.592Z,98.10
2018-12-26T02:03:23.012Z,97.90
2018-12-26T02:06:04.650Z,97.80
2018-12-26T02:08:45.536Z,97.70
2018-12-26T02:11:26.231Z,97.70
2018-12-26T02:14:08.675Z,97.70
2018-12-26T02:16:50.024Z,97.70
2018-12-26T02:19:31.313Z,98.00
2018-12-26T02:22:12.680Z,97.80
2018-12-26T02:24:55.222Z,97.80
2018-12-26T02:27:36.515Z,97.80
2018-12-26T02:30:17.745Z,97.80
2018-12-26T02:32:57.619Z,97.70
2018-12-26T02:35:39.049Z,97.80
2018-12-26T02:38:20.454Z,98.00
2018-12-26T02:41:01.359Z,97.90
2018-12-26T02:43:46.000Z,97.60
2018-12-26T02:46:26.699Z,98.00
2018-12-26T02:49:07.339Z,97.80
2018-12-26T02:51:48.067Z,97.80
2018-12-26T02:54:29.536Z,97.90
2018-12-26T02:57:11.134Z,98.40
2018-12-26T02:59:52.738Z,98.00
2018-12-26T03:02:34.494Z,98.20
2018-12-26T03:05:16.033Z,98.20
2018-12-26T03:07:57.655Z,98.20
2018-12-26T03:10:38.720Z,98.10
2018-12-26T03:13:20.186Z,98.00
2018-12-26T03:16:01.097Z,97.70
2018-12-26T03:18:42.791Z,97.70
2018-12-26T03:21:23.866Z,97.70
2018-12-26T03:24:04.741Z,97.70
2018-12-26T03:26:55.790Z,98.00
2018-12-26T03:29:28.895Z,98.00
2018-12-26T03:32:10.542Z,98.30
2018-12-26T03:34:52.042Z,98.00
2018-12-26T03:37:32.743Z,97.90
2018-12-26T03:40:14.430Z,97.80
2018-12-26T03:43:04.378Z,97.70
2018-12-26T03:45:52.940Z,97.70
2018-12-26T03:48:34.015Z,97.70
2018-12-26T03:51:15.663Z,97.70
2018-12-26T03:53:57.270Z,97.70
2018-12-26T03:56:39.117Z,97.70
2018-12-26T03:59:20.457Z,97.70
2018-12-26T04:02:01.362Z,97.90
2018-12-26T04:07:28.349Z,98.40
2018-12-26T04:10:09.998Z,98.30
2018-12-26T04:12:51.992Z,98.20
2018-12-26T04:15:32.920Z,98.00
2018-12-26T04:18:13.651Z,97.70
2018-12-26T04:20:55.255Z,97.70
2018-12-26T04:23:36.062Z,97.80
2018-12-26T04:26:17.571Z,97.80
2018-12-26T04:28:59.138Z,97.70
2018-12-26T04:31:40.691Z,97.60
2018-12-26T04:34:21.909Z,97.50
2018-12-26T04:37:03.284Z,97.50
2018-12-26T04:39:44.730Z,97.50
2018-12-26T04:42:26.313Z,97.50
2018-12-26T04:45:07.331Z,97.40
2018-12-26T04:47:48.641Z,97.40
2018-12-26T04:50:18.086Z,97.30
2018-12-26T04:53:06.639Z,97.60
2018-12-26T04:55:56.284Z,97.70
2018-12-26T04:58:37.244Z,97.70
2018-12-26T05:01:18.744Z,98.10
2018-12-26T05:04:00.244Z,97.90
2018-12-26T05:06:41.286Z,97.80
2018-12-26T05:09:22.882Z,97.60
2018-12-26T05:12:05.720Z,97.50
2018-12-26T05:14:47.881Z,97.50
2018-12-26T05:17:29.274Z,97.50
2018-12-26T05:20:11.042Z,97.70
2018-12-26T05:22:53.482Z,97.50
2018-12-26T05:25:34.187Z,97.50
2018-12-26T05:28:14.984Z,97.40
2018-12-26T05:30:57.475Z,97.40
2018-12-26T05:33:39.242Z,97.50
2018-12-26T05:36:20.749Z,97.60
2018-12-26T05:41:47.603Z,97.60
2018-12-26T05:44:28.959Z,97.60
2018-12-26T05:47:10.741Z,97.60
2018-12-26T05:49:52.162Z,97.60
2018-12-26T05:52:33.599Z,97.50
2018-12-26T05:55:14.310Z,97.50
2018-12-26T05:57:54.084Z,97.50
2018-12-26T06:03:18.693Z,97.50
2018-12-26T06:06:00.012Z,97.60
2018-12-26T06:08:41.306Z,97.60
2018-12-26T06:11:22.783Z,97.60
2018-12-26T06:14:03.559Z,97.50
2018-12-26T06:16:44.781Z,97.60
2018-12-26T06:19:26.287Z,97.60
2018-12-26T06:22:07.834Z,97.80
2018-12-26T06:24:50.275Z,98.10
2018-12-26T06:27:31.694Z,98.00
2018-12-26T06:30:12.421Z,97.70
2018-12-26T06:32:53.852Z,97.60
2018-12-26T06:35:35.371Z,97.40
2018-12-26T06:38:16.930Z,97.50
2018-12-26T06:40:58.466Z,97.40
2018-12-26T06:43:40.267Z,97.40
2018-12-26T06:46:21.571Z,97.40
2018-12-26T06:49:08.394Z,97.40
2018-12-26T06:51:49.971Z,97.50
2018-12-26T06:54:31.894Z,97.50
2018-12-26T06:57:13.020Z,97.60
2018-12-26T06:59:56.135Z,97.70
2018-12-26T07:02:38.427Z,97.60
2018-12-26T07:07:58.259Z,97.60
2018-12-26T07:10:39.394Z,97.50
2018-12-26T07:13:20.665Z,97.50
2018-12-26T07:16:01.871Z,97.40
2018-12-26T07:18:43.337Z,97.50
2018-12-26T07:21:25.542Z,97.50
2018-12-26T07:24:06.871Z,97.50
2018-12-26T07:26:47.626Z,97.50
2018-12-26T07:29:28.854Z,97.60
2018-12-26T07:32:10.363Z,97.70
2018-12-26T07:34:51.078Z,97.60
2018-12-26T07:37:33.968Z,97.50
2018-12-26T07:40:16.263Z,97.40
2018-12-26T07:42:58.555Z,97.50
2018-12-26T07:45:40.219Z,97.50
2018-12-26T07:48:21.845Z,97.50
2018-12-26T07:51:03.467Z,97.70
2018-12-26T07:53:44.776Z,97.60
2018-12-26T07:56:26.149Z,97.40
2018-12-26T07:59:06.903Z,97.30
2018-12-26T08:01:47.780Z,97.20
2018-12-26T08:04:29.236Z,97.20
2018-12-26T08:07:10.796Z,97.20
2018-12-26T08:12:35.563Z,97.30
2018-12-26T08:15:17.323Z,97.30
2018-12-26T08:17:59.635Z,97.20
2018-12-26T08:20:40.480Z,97.20
2018-12-26T08:23:21.944Z,97.00
2018-12-26T08:26:03.381Z,97.10
2018-12-26T08:28:44.351Z,97.10
2018-12-26T08:31:25.819Z,97.00
2018-12-26T08:33:55.344Z,96.90
2018-12-26T08:36:43.855Z,96.90
2018-12-26T08:39:25.429Z,97.10
2018-12-26T08:42:06.250Z,97.00
2018-12-26T08:44:47.695Z,97.40
2018-12-26T08:50:14.644Z,96.90
2018-12-26T08:55:25.387Z,96.60
2018-12-26T08:58:14.010Z,96.60
2018-12-26T09:00:55.143Z,96.50
2018-12-26T09:03:24.518Z,96.40
2018-12-26T09:06:13.108Z,96.50
2018-12-26T09:09:01.574Z,96.40
2018-12-26T09:11:43.117Z,96.30
2018-12-26T09:17:03.186Z,96.30
2018-12-26T09:19:44.807Z,96.20
2018-12-26T09:22:25.532Z,96.00
2018-12-26T09:25:05.447Z,95.90
2018-12-26T09:27:46.762Z,95.90
2018-12-26T09:30:27.450Z,95.80
2018-12-26T09:33:10.321Z,95.70
2018-12-26T09:35:51.455Z,95.80
2018-12-26T09:38:32.323Z,95.70
2018-12-26T09:41:13.178Z,95.40
2018-12-26T09:43:54.879Z,94.90
2018-12-26T09:46:36.036Z,94.70
2018-12-26T09:49:17.667Z,95.00
2018-12-26T09:51:58.997Z,94.40
2018-12-26T09:54:40.320Z,94.10
2018-12-26T09:57:21.908Z,94.10
2018-12-26T09:59:51.360Z,94.10
2018-12-26T10:02:20.909Z,94.10
2018-12-26T10:05:09.572Z,94.10
2018-12-26T10:07:38.955Z,94.00
2018-12-26T10:10:27.668Z,94.10
2018-12-26T10:13:09.318Z,94.00
2018-12-26T10:15:38.902Z,93.80
2018-12-26T10:18:27.724Z,93.70
2018-12-26T10:21:16.597Z,93.70
2018-12-26T10:23:57.567Z,93.80
2018-12-26T10:29:23.017Z,93.80
2018-12-26T10:32:04.027Z,93.60
2018-12-26T10:34:45.447Z,93.40
2018-12-26T10:37:26.791Z,93.20
2018-12-26T10:42:53.947Z,92.30
2018-12-26T10:45:35.163Z,92.00
2018-12-26T10:48:16.696Z,91.60
2018-12-26T10:50:59.024Z,91.60
2018-12-26T10:53:40.584Z,91.50
2018-12-26T10:56:22.034Z,91.20
2018-12-26T10:58:51.452Z,91.40
2018-12-26T11:01:39.981Z,91.00
2018-12-26T11:04:28.770Z,90.90
2018-12-26T11:07:10.692Z,91.40
2018-12-26T11:12:41.455Z,91.30
2018-12-26T11:15:11.424Z,91.30
2018-12-26T11:17:40.796Z,90.80
2018-12-26T11:20:29.920Z,91.10
2018-12-26T11:23:00.762Z,91.10
2018-12-26T11:25:30.290Z,91.20
2018-12-26T11:28:19.080Z,91.40
2018-12-26T11:31:00.838Z,91.30
2018-12-26T11:33:42.189Z,91.40
2018-12-26T11:36:23.395Z,90.90
2018-12-26T11:39:06.264Z,90.90
2018-12-26T11:44:32.592Z,90.70
2018-12-26T11:47:20.935Z,90.60
2018-12-26T11:50:09.452Z,90.20
2018-12-26T11:52:51.702Z,89.70
2018-12-26T11:55:33.271Z,89.30
2018-12-26T11:58:13.983Z,87.60
2018-12-26T12:00:55.976Z,85.50
2018-12-26T12:03:37.484Z,82.40
2018-12-26T12:06:19.056Z,79.20
2018-12-26T12:09:11.021Z,75.40
2018-12-26T12:11:51.871Z,72.80
2018-12-26T12:14:32.754Z,70.30
2018-12-26T12:17:14.646Z,69.10
2018-12-26T12:19:56.331Z,69.20
2018-12-26T12:22:37.878Z,69.70
2018-12-26T12:25:19.599Z,70.00
2018-12-26T12:28:01.133Z,69.60
2018-12-26T12:33:34.002Z,72.70
2018-12-26T12:36:15.820Z,74.80
2018-12-26T12:38:57.200Z,75.10
2018-12-26T12:41:38.854Z,75.60
2018-12-26T12:44:21.665Z,76.80
2018-12-26T12:47:03.120Z,76.00
2018-12-26T12:49:44.791Z,74.80
2018-12-26T12:52:28.195Z,72.90
2018-12-26T12:55:08.923Z,72.10
2018-12-26T12:57:49.679Z,74.10
2018-12-26T13:00:31.326Z,76.60
2018-12-26T13:03:12.014Z,78.10
2018-12-26T13:08:39.488Z,80.70
2018-12-26T13:11:20.359Z,81.50
2018-12-26T13:13:49.882Z,82.90
2018-12-26T13:16:38.404Z,83.20
2018-12-26T13:19:18.484Z,83.80
2018-12-26T13:21:59.541Z,84.90
2018-12-26T13:24:28.955Z,84.00
2018-12-26T13:30:18.008Z,84.30
2018-12-26T13:32:58.985Z,84.20
2018-12-26T13:35:39.953Z,84.30
2018-12-26T13:38:21.203Z,84.70
2018-12-26T13:43:54.426Z,84.20
2018-12-26T13:46:36.861Z,84.80
2018-12-26T13:49:18.758Z,85.20
2018-12-26T13:51:59.715Z,85.60
2018-12-26T13:54:41.915Z,85.90
2018-12-26T13:57:23.151Z,85.30
2018-12-26T14:00:04.306Z,85.70
2018-12-26T14:02:45.159Z,85.90
2018-12-26T14:05:26.598Z,85.10
2018-12-26T14:08:07.786Z,85.30
2018-12-26T14:10:49.402Z,84.80
2018-12-26T14:13:30.114Z,84.20
2018-12-26T14:16:11.395Z,84.60
2018-12-26T14:21:38.175Z,83.30
2018-12-26T14:24:20.827Z,82.30
2018-12-26T14:27:02.431Z,81.20
2018-12-26T14:29:43.766Z,81.60
2018-12-26T14:32:24.514Z,81.90
2018-12-26T14:35:05.687Z,82.20
2018-12-26T14:37:47.084Z,82.10
2018-12-26T14:40:28.681Z,82.80
2018-12-26T14:43:10.370Z,82.80
2018-12-26T14:45:51.381Z,82.80
2018-12-26T14:48:32.829Z,83.70
2018-12-26T14:54:01.831Z,83.90
2018-12-26T14:56:41.584Z,84.40
2018-12-26T14:59:22.774Z,84.60
2018-12-26T15:02:04.401Z,85.20
2018-12-26T15:04:45.571Z,85.30
2018-12-26T15:07:27.850Z,85.50
2018-12-26T15:10:09.704Z,85.40
2018-12-26T15:12:50.841Z,85.90
2018-12-26T15:15:20.477Z,86.70
2018-12-26T15:18:09.319Z,88.00
2018-12-26T15:20:50.554Z,87.10
2018-12-26T15:23:31.855Z,87.80
2018-12-26T15:26:03.443Z,88.10
2018-12-26T15:28:51.999Z,88.50
2018-12-26T15:31:36.032Z,88.50
2018-12-26T15:34:18.662Z,88.40
2018-12-26T15:37:00.473Z,88.90
2018-12-26T15:39:41.661Z,89.70
2018-12-26T15:42:25.630Z,90.00
2018-12-26T15:45:06.905Z,90.00
2018-12-26T15:47:48.163Z,90.10
2018-12-26T15:50:29.527Z,90.40
2018-12-26T15:53:10.446Z,90.40
2018-12-26T15:55:51.924Z,90.80
2018-12-26T15:58:34.633Z,90.80
2018-12-26T16:01:16.072Z,90.70
2018-12-26T16:03:57.703Z,90.80
2018-12-26T16:06:39.759Z,90.80
2018-12-26T16:09:21.891Z,90.90
2018-12-26T16:12:02.766Z,91.00
2018-12-26T16:14:44.506Z,91.20
2018-12-26T16:17:28.912Z,91.40
2018-12-26T16:20:09.768Z,91.50
2018-12-26T16:22:51.453Z,91.50
2018-12-26T16:25:32.110Z,91.70
2018-12-26T16:28:01.592Z,91.90
2018-12-26T16:30:50.114Z,92.30
2018-12-26T16:33:33.732Z,92.30
2018-12-26T16:36:15.175Z,92.50
2018-12-26T16:38:55.843Z,92.70
2018-12-26T16:41:37.387Z,92.70
2018-12-26T16:44:19.253Z,92.80
2018-12-26T16:47:00.641Z,92.90
2018-12-26T16:49:42.357Z,93.00
2018-12-26T16:52:23.513Z,93.20
2018-12-26T16:55:04.608Z,93.10
2018-12-26T17:00:30.337Z,93.30
2018-12-26T17:03:11.671Z,93.40
2018-12-26T17:05:52.403Z,93.50
2018-12-26T17:08:33.852Z,93.60
2018-12-26T17:11:03.165Z,93.70
2018-12-26T17:13:44.547Z,93.90
2018-12-26T17:16:25.569Z,94.00
2018-12-26T17:19:06.436Z,94.00
2018-12-26T17:21:48.101Z,94.10
2018-12-26T17:24:29.521Z,94.00
2018-12-26T17:27:11.031Z,94.10
2018-12-26T17:29:51.958Z,94.00
2018-12-26T17:32:33.203Z,94.20
2018-12-26T17:35:14.231Z,94.20
2018-12-26T17:37:55.412Z,94.20
2018-12-26T17:40:25.120Z,94.40
2018-12-26T17:43:14.098Z,94.30
2018-12-26T17:45:57.366Z,94.40
2018-12-26T17:48:38.904Z,94.50
2018-12-26T17:51:13.750Z,94.50
2018-12-26T17:54:21.624Z,94.40
2018-12-26T17:57:11.964Z,94.40
2018-12-26T17:59:53.452Z,94.50
2018-12-26T18:02:34.740Z,94.50
2018-12-26T18:05:16.210Z,94.50
2018-12-26T18:07:57.819Z,94.50
2018-12-26T18:10:40.649Z,94.30
2018-12-26T18:16:07.339Z,94.30
2018-12-26T18:18:48.312Z,94.30
2018-12-26T18:21:29.771Z,94.40
2018-12-26T18:24:13.733Z,94.40
2018-12-26T18:26:55.304Z,94.50
2018-12-26T18:29:36.145Z,94.50
2018-12-26T18:32:05.694Z,94.40
2018-12-26T18:37:48.286Z,94.60
2018-12-26T18:40:29.850Z,94.60
2018-12-26T18:43:11.320Z,94.50
2018-12-26T18:45:53.384Z,94.50
2018-12-26T18:51:14.615Z,94.50
2018-12-26T18:53:55.693Z,94.60
2018-12-26T18:59:22.611Z,94.60
2018-12-26T19:02:04.764Z,94.70
2018-12-26T19:04:44.477Z,94.70
2018-12-26T19:07:25.568Z,94.60
2018-12-26T19:10:07.066Z,94.60
2018-12-26T19:12:48.411Z,94.60
2018-12-26T19:15:29.938Z,94.40
2018-12-26T19:18:10.787Z,94.40
2018-12-26T19:20:52.308Z,94.30
2018-12-26T19:23:33.688Z,94.30
2018-12-26T19:26:03.158Z,94.30
2018-12-26T19:28:51.613Z,94.30
2018-12-26T19:31:39.511Z,94.20
2018-12-26T19:34:16.322Z,94.20
2018-12-26T19:36:57.599Z,94.30
2018-12-26T19:39:38.871Z,94.10
2018-12-26T19:45:02.761Z,94.10
2018-12-26T19:47:45.295Z,94.20
2018-12-26T19:50:26.056Z,94.10
2018-12-26T19:53:07.561Z,94.20
2018-12-26T19:55:49.132Z,94.30
2018-12-26T19:58:29.323Z,94.30
2018-12-26T20:01:09.092Z,94.30
2018-12-26T20:03:50.067Z,94.40
2018-12-26T20:06:32.405Z,94.50
2018-12-26T20:09:16.970Z,94.40
2018-12-26T20:11:58.305Z,94.40
2018-12-26T20:14:39.988Z,94.30
2018-12-26T20:17:21.167Z,94.30
2018-12-26T20:20:02.765Z,94.30
2018-12-26T20:22:44.401Z,94.20
2018-12-26T20:25:25.148Z,94.20
2018-12-26T20:28:06.161Z,94.20
2018-12-26T20:30:47.793Z,94.50
2018-12-26T20:33:17.160Z,94.10
2018-12-26T20:36:05.719Z,94.10
2018-12-26T20:38:46.983Z,94.20
2018-12-26T20:44:12.096Z,94.30
2018-12-26T20:46:54.096Z,94.30
2018-12-26T20:49:35.135Z,94.20
2018-12-26T20:52:16.300Z,94.20
2018-12-26T20:54:57.856Z,94.00
2018-12-26T20:57:38.755Z,94.00
2018-12-26T21:00:19.851Z,94.20
2018-12-26T21:03:00.602Z,94.00
2018-12-26T21:05:41.776Z,94.00
2018-12-26T21:08:26.463Z,94.00
2018-12-26T21:11:08.693Z,94.00
2018-12-26T21:13:49.559Z,94.00
2018-12-26T21:16:30.694Z,94.10
2018-12-26T21:19:12.080Z,94.10
2018-12-26T21:21:52.968Z,94.00
2018-12-26T21:24:33.643Z,94.10
2018-12-26T21:27:15.134Z,94.10
2018-12-26T21:29:55.877Z,94.20
2018-12-26T21:32:37.597Z,94.10
2018-12-26T21:35:18.354Z,94.20
2018-12-26T21:37:59.508Z,94.30
2018-12-26T21:40:40.304Z,94.40
2018-12-26T21:43:21.558Z,94.60
2018-12-26T21:46:03.019Z,94.60
2018-12-26T21:48:43.724Z,94.60
2018-12-26T21:51:24.651Z,94.40
2018-12-26T21:54:06.247Z,94.40
2018-12-26T21:56:47.854Z,94.50
2018-12-26T21:59:30.797Z,94.50
2018-12-26T22:02:11.738Z,94.40
2018-12-26T22:04:53.295Z,94.40
2018-12-26T22:07:22.703Z,94.30
2018-12-26T22:10:11.523Z,94.30
2018-12-26T22:12:52.110Z,94.30
2018-12-26T22:15:32.803Z,94.20
2018-12-26T22:18:14.201Z,94.20
2018-12-26T22:20:55.977Z,94.20
2018-12-26T22:23:37.708Z,94.20
2018-12-26T22:26:19.047Z,94.20
2018-12-26T22:29:00.643Z,94.20
2018-12-26T22:31:42.188Z,94.30
2018-12-26T22:34:23.248Z,94.30
2018-12-26T22:37:04.420Z,94.20
2018-12-26T22:39:46.092Z,94.30
2018-12-26T22:42:27.650Z,94.20
2018-12-26T22:45:08.367Z,94.20
2018-12-26T22:47:49.807Z,94.10
2018-12-26T22:50:30.465Z,94.10
2018-12-26T22:53:11.443Z,94.00
2018-12-26T22:55:52.419Z,94.00
2018-12-26T22:58:33.953Z,93.90
2018-12-26T23:01:15.323Z,93.90
2018-12-26T23:03:56.721Z,94.00
2018-12-26T23:06:38.851Z,94.00
2018-12-26T23:09:09.498Z,94.00
2018-12-26T23:11:58.029Z,94.00
2018-12-26T23:14:46.569Z,94.00
2018-12-26T23:17:16.034Z,93.90
2018-12-26T23:20:04.780Z,93.90
2018-12-26T23:22:46.633Z,93.90
2018-12-26T23:25:27.514Z,93.90
2018-12-26T23:28:08.933Z,93.90
2018-12-26T23:30:52.470Z,93.80
2018-12-26T23:33:34.121Z,93.80
2018-12-26T23:36:15.612Z,93.90
2018-12-26T23:38:56.447Z,93.80
2018-12-26T23:41:38.017Z,93.90
2018-12-26T23:44:20.849Z,93.80
2018-12-26T23:47:02.021Z,93.90
2018-12-26T23:49:43.704Z,93.80
2018-12-26T23:52:25.217Z,93.80
2018-12-26T23:55:06.424Z,93.70
2018-12-26T23:57:47.909Z,93.80
